createdAt,value
2017-02-12T00:00:00.160Z,24.32
2017-02-12T00:00:19.925Z,24.34
2017-02-12T00:00:40.359Z,24.38
2017-02-12T00:01:00.100Z,24.44
2017-02-12T00:01:20.552Z,24.4
2017-02-12T00:01:40.957Z,24.38
2017-02-12T00:02:01.378Z,24.5
2017-02-12T00:02:21.101Z,24.47
2017-02-12T00:02:41.510Z,24.4
2017-02-12T00:03:01.928Z,24.4
2017-02-12T00:03:21.679Z,24.48
2017-02-12T00:03:42.088Z,24.47
2017-02-12T00:04:02.524Z,24.48
2017-02-12T00:04:22.909Z,24.45
2017-02-12T00:04:43.323Z,24.42
2017-02-12T00:05:03.716Z,24.42
2017-02-12T00:05:24.129Z,24.29
2017-02-12T00:05:44.494Z,24.3
2017-02-12T00:06:04.922Z,24.25
2017-02-12T00:06:24.686Z,24.25
2017-02-12T00:06:45.125Z,24.27
2017-02-12T00:07:05.791Z,24.3
2017-02-12T00:07:26.215Z,24.32
2017-02-12T00:07:45.969Z,24.27
2017-02-12T00:08:06.346Z,24.29
2017-02-12T00:08:26.082Z,24.34
2017-02-12T00:08:46.474Z,24.26
2017-02-12T00:09:06.841Z,24.32
2017-02-12T00:09:27.235Z,24.34
2017-02-12T00:09:47.642Z,24.27
2017-02-12T00:10:08.215Z,24.38
2017-02-12T00:10:28.609Z,24.38
2017-02-12T00:10:49.033Z,24.4
2017-02-12T00:11:09.426Z,24.42
2017-02-12T00:11:29.830Z,24.44
2017-02-12T00:11:50.221Z,24.47
2017-02-12T00:12:10.016Z,24.45
2017-02-12T00:12:30.394Z,24.48
2017-02-12T00:12:50.814Z,24.52
2017-02-12T00:13:11.231Z,24.45
2017-02-12T00:13:31.647Z,24.45
2017-02-12T00:13:52.045Z,24.59
2017-02-12T00:14:11.796Z,24.56
2017-02-12T00:14:32.203Z,24.57
2017-02-12T00:14:52.621Z,24.57
2017-02-12T00:15:12.996Z,24.62
2017-02-12T00:15:33.421Z,24.56
2017-02-12T00:15:53.801Z,24.59
2017-02-12T00:16:14.220Z,24.6
2017-02-12T00:16:34.610Z,24.59
2017-02-12T00:16:54.987Z,24.6
2017-02-12T00:17:15.387Z,24.64
2017-02-12T00:17:35.793Z,24.57
2017-02-12T00:17:56.185Z,24.57
2017-02-12T00:18:15.926Z,24.64
2017-02-12T00:18:36.313Z,24.67
2017-02-12T00:18:56.725Z,24.6
2017-02-12T00:19:17.108Z,24.66
2017-02-12T00:19:37.525Z,24.73
2017-02-12T00:19:57.957Z,24.64
2017-02-12T00:20:18.335Z,24.63
2017-02-12T00:20:38.717Z,24.73
2017-02-12T00:20:59.119Z,24.66
2017-02-12T00:21:18.855Z,24.67
2017-02-12T00:21:39.273Z,24.69
2017-02-12T00:21:59.695Z,24.66
2017-02-12T00:22:20.053Z,24.57
2017-02-12T00:22:39.838Z,24.64
2017-02-12T00:23:00.247Z,24.56
2017-02-12T00:23:20.640Z,24.66
2017-02-12T00:23:41.033Z,24.62
2017-02-12T00:24:01.443Z,24.73
2017-02-12T00:24:21.189Z,24.63
2017-02-12T00:24:41.597Z,24.63
2017-02-12T00:25:02.399Z,24.66
2017-02-12T00:25:22.793Z,24.67
2017-02-12T00:25:42.511Z,24.53
2017-02-12T00:26:02.884Z,24.59
2017-02-12T00:26:23.296Z,24.5
2017-02-12T00:26:43.030Z,24.42
2017-02-12T00:27:03.615Z,24.37
2017-02-12T00:27:24.042Z,24.44
2017-02-12T00:27:44.449Z,24.35
2017-02-12T00:28:04.859Z,24.32
2017-02-12T00:28:24.610Z,24.32
2017-02-12T00:28:45.037Z,24.2
2017-02-12T00:29:05.399Z,24.25
2017-02-12T00:29:25.758Z,24.2
2017-02-12T00:29:45.537Z,24.25
2017-02-12T00:30:19.666Z,24.17
2017-02-12T00:30:40.033Z,24.23
2017-02-12T00:31:00.422Z,24.26
2017-02-12T00:31:20.821Z,24.23
2017-02-12T00:31:39.941Z,24.23
2017-02-12T00:32:00.479Z,24.25
2017-02-12T00:32:20.881Z,24.27
2017-02-12T00:32:40.625Z,24.25
2017-02-12T00:33:01.039Z,24.11
2017-02-12T00:33:21.408Z,24.26
2017-02-12T00:33:41.821Z,24.19
2017-02-12T00:34:02.205Z,24.15
2017-02-12T00:34:22.592Z,24.25
2017-02-12T00:34:42.989Z,24.27
2017-02-12T00:35:03.403Z,24.22
2017-02-12T00:35:23.162Z,24.22
2017-02-12T00:35:43.587Z,24.23
2017-02-12T00:36:03.340Z,24.25
2017-02-12T00:36:23.694Z,24.23
2017-02-12T00:36:44.072Z,24.22
2017-02-12T00:37:04.482Z,24.19
2017-02-12T00:37:24.883Z,24.29
2017-02-12T00:37:45.260Z,24.22
2017-02-12T00:38:05.706Z,24.27
2017-02-12T00:38:25.474Z,24.2
2017-02-12T00:38:45.837Z,24.17
2017-02-12T00:39:06.309Z,24.17
2017-02-12T00:39:26.714Z,24.2
2017-02-12T00:39:47.140Z,24.23
2017-02-12T00:40:07.536Z,24.23
2017-02-12T00:40:27.961Z,24.26
2017-02-12T00:40:48.340Z,24.35
2017-02-12T00:41:08.751Z,24.32
2017-02-12T00:41:28.504Z,24.22
2017-02-12T00:41:48.887Z,24.32
2017-02-12T00:42:09.423Z,24.32
2017-02-12T00:42:29.135Z,24.32
2017-02-12T00:42:49.566Z,24.34
2017-02-12T00:43:10.002Z,24.32
2017-02-12T00:43:29.730Z,24.3
2017-02-12T00:43:50.161Z,24.27
2017-02-12T00:44:10.582Z,24.27
2017-02-12T00:44:30.976Z,24.3
2017-02-12T00:44:51.384Z,24.3
2017-02-12T00:45:11.780Z,24.27
2017-02-12T00:45:32.179Z,24.34
2017-02-12T00:45:52.571Z,24.25
2017-02-12T00:46:12.930Z,24.2
2017-02-12T00:46:33.372Z,24.17
2017-02-12T00:46:53.766Z,24.23
2017-02-12T00:47:13.478Z,24.22
2017-02-12T00:47:32.593Z,24.25
2017-02-12T00:47:52.345Z,24.22
2017-02-12T00:48:12.755Z,24.17
2017-02-12T00:48:32.510Z,24.19
2017-02-12T00:48:52.998Z,24.04
2017-02-12T00:49:13.476Z,24.07
2017-02-12T00:49:33.888Z,24.12
2017-02-12T00:49:53.672Z,24.07
2017-02-12T00:50:14.035Z,24.02
2017-02-12T00:50:33.793Z,24.02
2017-02-12T00:50:54.175Z,24.01
2017-02-12T00:51:13.901Z,23.98
2017-02-12T00:51:33.704Z,24.01
2017-02-12T00:51:53.442Z,24.01
2017-02-12T00:52:13.835Z,24.04
2017-02-12T00:52:34.208Z,23.93
2017-02-12T00:52:53.968Z,23.9
2017-02-12T00:53:14.356Z,23.87
2017-02-12T00:53:34.743Z,23.92
2017-02-12T00:53:55.154Z,23.9
2017-02-12T00:54:15.502Z,23.86
2017-02-12T00:54:35.881Z,23.83
2017-02-12T00:54:55.619Z,23.8
2017-02-12T00:55:16.167Z,23.82
2017-02-12T00:55:37.126Z,23.9
2017-02-12T00:55:56.990Z,23.86
2017-02-12T00:56:17.399Z,23.74
2017-02-12T00:56:37.802Z,23.85
2017-02-12T00:56:58.178Z,23.79
2017-02-12T00:57:18.586Z,23.7
2017-02-12T00:57:38.989Z,23.75
2017-02-12T00:57:59.376Z,23.6
2017-02-12T00:58:19.770Z,23.61
2017-02-12T00:58:39.530Z,23.64
2017-02-12T00:58:59.978Z,23.64
2017-02-12T00:59:20.392Z,23.61
2017-02-12T00:59:40.844Z,23.6
2017-02-12T01:00:01.288Z,23.65
2017-02-12T01:00:21.677Z,23.56
2017-02-12T01:00:42.051Z,23.61
2017-02-12T01:01:02.444Z,23.43
2017-02-12T01:01:22.872Z,23.49
2017-02-12T01:01:43.259Z,23.46
2017-02-12T01:02:03.640Z,23.52
2017-02-12T01:02:24.067Z,23.4
2017-02-12T01:02:43.808Z,23.46
2017-02-12T01:03:04.295Z,23.53
2017-02-12T01:03:24.744Z,23.5
2017-02-12T01:03:45.144Z,23.48
2017-02-12T01:04:05.542Z,23.43
2017-02-12T01:04:25.942Z,23.35
2017-02-12T01:04:46.344Z,23.34
2017-02-12T01:05:06.775Z,23.37
2017-02-12T01:05:27.182Z,23.45
2017-02-12T01:05:47.580Z,23.42
2017-02-12T01:06:07.932Z,23.43
2017-02-12T01:06:27.731Z,23.48
2017-02-12T01:06:48.162Z,23.55
2017-02-12T01:07:08.576Z,23.55
2017-02-12T01:07:28.983Z,23.67
2017-02-12T01:07:48.738Z,23.55
2017-02-12T01:08:09.156Z,23.55
2017-02-12T01:08:29.553Z,23.61
2017-02-12T01:08:49.299Z,23.68
2017-02-12T01:09:09.693Z,23.63
2017-02-12T01:09:30.176Z,23.63
2017-02-12T01:09:50.565Z,23.67
2017-02-12T01:10:10.295Z,23.7
2017-02-12T01:10:30.669Z,23.56
2017-02-12T01:10:50.426Z,23.63
2017-02-12T01:11:10.894Z,23.65
2017-02-12T01:11:30.667Z,23.64
2017-02-12T01:11:50.432Z,23.64
2017-02-12T01:12:10.536Z,23.61
2017-02-12T01:12:30.279Z,23.71
2017-02-12T01:12:50.724Z,23.65
2017-02-12T01:13:10.490Z,23.68
2017-02-12T01:13:30.284Z,23.72
2017-02-12T01:13:50.658Z,23.74
2017-02-12T01:14:11.066Z,23.74
2017-02-12T01:14:31.480Z,23.7
2017-02-12T01:14:51.882Z,23.72
2017-02-12T01:15:12.276Z,23.75
2017-02-12T01:15:32.694Z,23.7
2017-02-12T01:15:52.479Z,23.83
2017-02-12T01:16:12.913Z,23.8
2017-02-12T01:16:33.288Z,23.79
2017-02-12T01:16:53.048Z,23.87
2017-02-12T01:17:13.475Z,23.8
2017-02-12T01:17:33.234Z,23.89
2017-02-12T01:17:53.594Z,23.9
2017-02-12T01:18:13.315Z,23.82
2017-02-12T01:18:33.675Z,23.83
2017-02-12T01:18:54.086Z,23.86
2017-02-12T01:19:14.485Z,23.9
2017-02-12T01:19:34.859Z,23.9
2017-02-12T01:19:55.285Z,23.86
2017-02-12T01:20:15.697Z,23.87
2017-02-12T01:20:35.435Z,23.89
2017-02-12T01:20:55.812Z,23.85
2017-02-12T01:21:16.223Z,23.89
2017-02-12T01:21:36.630Z,23.83
2017-02-12T01:21:57.008Z,23.92
2017-02-12T01:22:17.411Z,23.89
2017-02-12T01:22:37.861Z,23.92
2017-02-12T01:22:58.256Z,23.93
2017-02-12T01:23:18.691Z,23.92
2017-02-12T01:23:39.115Z,23.87
2017-02-12T01:23:59.528Z,23.79
2017-02-12T01:24:19.947Z,23.87
2017-02-12T01:24:40.345Z,23.92
2017-02-12T01:25:00.740Z,23.87
2017-02-12T01:25:21.185Z,23.85
2017-02-12T01:25:41.539Z,23.86
2017-02-12T01:26:01.977Z,23.89
2017-02-12T01:26:21.776Z,23.92
2017-02-12T01:26:42.180Z,23.95
2017-02-12T01:27:02.575Z,23.93
2017-02-12T01:27:23.001Z,23.97
2017-02-12T01:27:43.407Z,23.85
2017-02-12T01:28:03.825Z,23.86
2017-02-12T01:28:24.195Z,23.9
2017-02-12T01:28:44.579Z,23.97
2017-02-12T01:29:04.973Z,23.93
2017-02-12T01:29:25.365Z,23.92
2017-02-12T01:29:45.124Z,23.92
2017-02-12T01:30:05.516Z,23.8
2017-02-12T01:30:25.270Z,23.82
2017-02-12T01:30:45.012Z,23.82
2017-02-12T01:31:05.395Z,23.85
2017-02-12T01:31:25.777Z,23.85
2017-02-12T01:31:45.582Z,23.85
2017-02-12T01:32:05.315Z,23.82
2017-02-12T01:32:25.881Z,23.92
2017-02-12T01:32:46.306Z,23.97
2017-02-12T01:33:06.091Z,23.97
2017-02-12T01:33:26.465Z,23.97
2017-02-12T01:33:46.207Z,23.95
2017-02-12T01:34:06.596Z,23.92
2017-02-12T01:34:27.016Z,23.92
2017-02-12T01:34:47.408Z,23.98
2017-02-12T01:35:07.810Z,23.9
2017-02-12T01:35:28.200Z,23.89
2017-02-12T01:35:48.612Z,23.92
2017-02-12T01:36:09.007Z,23.92
2017-02-12T01:36:29.390Z,23.89
2017-02-12T01:36:49.762Z,23.97
2017-02-12T01:37:10.148Z,23.9
2017-02-12T01:37:30.745Z,23.98
2017-02-12T01:37:50.503Z,23.89
2017-02-12T01:38:10.940Z,23.97
2017-02-12T01:38:31.375Z,23.92
2017-02-12T01:38:51.781Z,23.92
2017-02-12T01:39:12.191Z,23.92
2017-02-12T01:39:32.592Z,23.92
2017-02-12T01:39:52.989Z,23.93
2017-02-12T01:40:13.422Z,23.93
2017-02-12T01:40:33.812Z,23.92
2017-02-12T01:40:54.194Z,23.92
2017-02-12T01:41:13.941Z,23.95
2017-02-12T01:41:34.360Z,24.02
2017-02-12T01:41:54.117Z,24
2017-02-12T01:42:14.768Z,24.05
2017-02-12T01:42:34.544Z,24.01
2017-02-12T01:42:55.001Z,24.04
2017-02-12T01:43:15.428Z,23.95
2017-02-12T01:43:35.834Z,24.07
2017-02-12T01:43:56.261Z,24.12
2017-02-12T01:44:16.722Z,24.05
2017-02-12T01:44:37.116Z,24.01
2017-02-12T01:44:57.496Z,23.97
2017-02-12T01:45:17.900Z,24.1
2017-02-12T01:45:38.322Z,24.15
2017-02-12T01:45:58.688Z,24.12
2017-02-12T01:46:19.104Z,24.05
2017-02-12T01:46:39.518Z,24.04
2017-02-12T01:46:59.924Z,24.1
2017-02-12T01:47:20.319Z,24.05
2017-02-12T01:47:40.668Z,24.08
2017-02-12T01:48:01.038Z,24.07
2017-02-12T01:48:20.814Z,24.02
2017-02-12T01:48:41.230Z,24.15
2017-02-12T01:49:01.006Z,24.11
2017-02-12T01:49:20.764Z,24.15
2017-02-12T01:49:41.151Z,24.07
2017-02-12T01:50:01.508Z,24.08
2017-02-12T01:50:21.914Z,24.05
2017-02-12T01:50:42.253Z,24.11
2017-02-12T01:51:02.648Z,24.11
2017-02-12T01:51:22.424Z,24.1
2017-02-12T01:51:42.830Z,24.11
2017-02-12T01:52:03.246Z,24.08
2017-02-12T01:52:23.769Z,24.1
2017-02-12T01:52:44.242Z,24.02
2017-02-12T01:53:04.662Z,24.16
2017-02-12T01:53:25.073Z,24.19
2017-02-12T01:53:44.883Z,24.23
2017-02-12T01:54:05.274Z,24.15
2017-02-12T01:54:25.028Z,24.15
2017-02-12T01:54:45.446Z,24.16
2017-02-12T01:55:05.881Z,24.05
2017-02-12T01:55:26.269Z,24.17
2017-02-12T01:55:46.033Z,24.1
2017-02-12T01:56:06.428Z,24.16
2017-02-12T01:56:26.851Z,24.15
2017-02-12T01:56:47.262Z,24.17
2017-02-12T01:57:07.900Z,24.16
2017-02-12T01:57:28.287Z,24.05
2017-02-12T01:57:48.734Z,24.23
2017-02-12T01:58:09.149Z,24.05
2017-02-12T01:58:29.623Z,24.11
2017-02-12T01:58:50.074Z,24.05
2017-02-12T01:59:10.486Z,24.07
2017-02-12T01:59:31.024Z,24.07
2017-02-12T01:59:50.818Z,24.07
2017-02-12T02:00:11.230Z,24.07
2017-02-12T02:00:30.992Z,24.05
2017-02-12T02:00:51.464Z,24.1
2017-02-12T02:01:12.230Z,24.08
2017-02-12T02:01:32.697Z,24.07
2017-02-12T02:01:53.114Z,24.05
2017-02-12T02:02:13.607Z,24.08
2017-02-12T02:02:32.816Z,24.15
2017-02-12T02:02:53.375Z,24.17
2017-02-12T02:03:13.790Z,24.25
2017-02-12T02:03:34.186Z,24.19
2017-02-12T02:03:54.546Z,24.12
2017-02-12T02:04:14.299Z,24.22
2017-02-12T02:04:34.682Z,24.15
2017-02-12T02:04:55.078Z,24.1
2017-02-12T02:05:15.525Z,24.07
2017-02-12T02:05:35.902Z,24.01
2017-02-12T02:05:56.314Z,24.05
2017-02-12T02:06:16.071Z,24.02
2017-02-12T02:06:36.464Z,24.04
2017-02-12T02:06:56.854Z,24.01
2017-02-12T02:07:17.439Z,24.08
2017-02-12T02:07:37.864Z,24.08
2017-02-12T02:07:58.259Z,24.1
2017-02-12T02:08:18.007Z,24.08
2017-02-12T02:08:38.427Z,24.04
2017-02-12T02:08:58.858Z,24.1
2017-02-12T02:09:19.275Z,24.12
2017-02-12T02:09:39.667Z,24.08
2017-02-12T02:09:59.376Z,24.08
2017-02-12T02:10:20.006Z,24.11
2017-02-12T02:10:39.788Z,24.05
2017-02-12T02:11:00.180Z,24.01
2017-02-12T02:11:20.558Z,24.11
2017-02-12T02:11:40.315Z,24.11
2017-02-12T02:12:00.676Z,24.11
2017-02-12T02:12:21.228Z,24.04
2017-02-12T02:12:41.623Z,24.02
2017-02-12T02:13:02.018Z,24.01
2017-02-12T02:13:22.379Z,24.05
2017-02-12T02:13:42.759Z,24.05
2017-02-12T02:14:03.164Z,24.1
2017-02-12T02:14:23.602Z,24.1
2017-02-12T02:14:43.990Z,24.19
2017-02-12T02:15:04.367Z,24.05
2017-02-12T02:15:24.742Z,24.1
2017-02-12T02:15:45.188Z,24.1
2017-02-12T02:16:05.613Z,24.12
2017-02-12T02:16:26.057Z,24.16
2017-02-12T02:16:46.466Z,24.1
2017-02-12T02:17:06.882Z,24.08
2017-02-12T02:17:26.598Z,24.08
2017-02-12T02:17:46.991Z,24.19
2017-02-12T02:18:07.395Z,24.1
2017-02-12T02:18:27.160Z,24.11
2017-02-12T02:18:47.586Z,24.05
2017-02-12T02:19:08.013Z,24.15
2017-02-12T02:19:28.401Z,24.16
2017-02-12T02:19:48.816Z,24.17
2017-02-12T02:20:09.431Z,24.16
2017-02-12T02:20:29.844Z,24.08
2017-02-12T02:20:50.245Z,24.17
2017-02-12T02:21:10.627Z,24.11
2017-02-12T02:21:31.027Z,24.1
2017-02-12T02:21:51.405Z,24.05
2017-02-12T02:22:11.804Z,24.17
2017-02-12T02:22:32.212Z,24.04
2017-02-12T02:22:52.633Z,24.05
2017-02-12T02:23:13.002Z,24.22
2017-02-12T02:23:33.394Z,24.1
2017-02-12T02:23:53.790Z,24.12
2017-02-12T02:24:13.506Z,24.12
2017-02-12T02:24:33.300Z,24.05
2017-02-12T02:24:53.739Z,24.15
2017-02-12T02:25:13.535Z,24.12
2017-02-12T02:25:33.926Z,24.05
2017-02-12T02:25:54.299Z,24.11
2017-02-12T02:26:14.720Z,24.08
2017-02-12T02:26:35.147Z,24.12
2017-02-12T02:26:55.529Z,24.04
2017-02-12T02:27:15.965Z,24.1
2017-02-12T02:27:35.691Z,24.17
2017-02-12T02:27:56.117Z,24.11
2017-02-12T02:28:15.225Z,24.05
2017-02-12T02:28:35.598Z,24.08
2017-02-12T02:28:56.011Z,24.11
2017-02-12T02:29:15.726Z,24.05
2017-02-12T02:29:35.429Z,24.1
2017-02-12T02:29:55.839Z,24.16
2017-02-12T02:30:15.806Z,24.01
2017-02-12T02:30:36.725Z,24.08
2017-02-12T02:30:57.121Z,24.02
2017-02-12T02:31:17.638Z,24.15
2017-02-12T02:31:37.371Z,24.02
2017-02-12T02:31:57.121Z,24.04
2017-02-12T02:32:17.515Z,24.05
2017-02-12T02:32:37.924Z,24.07
2017-02-12T02:32:57.785Z,24.05
2017-02-12T02:33:18.258Z,24
2017-02-12T02:33:38.980Z,24.08
2017-02-12T02:33:59.361Z,24.05
2017-02-12T02:34:19.758Z,24.05
2017-02-12T02:34:41.616Z,24.1
2017-02-12T02:35:02.059Z,23.97
2017-02-12T02:35:22.479Z,24.1
2017-02-12T02:35:42.893Z,24.02
2017-02-12T02:36:03.318Z,24.05
2017-02-12T02:36:23.697Z,24.02
2017-02-12T02:36:44.132Z,24.04
2017-02-12T02:37:04.528Z,24.04
2017-02-12T02:37:25.028Z,24.08
2017-02-12T02:37:45.441Z,23.98
2017-02-12T02:38:05.884Z,24
2017-02-12T02:38:25.603Z,24.1
2017-02-12T02:38:46.043Z,24.01
2017-02-12T02:39:06.486Z,24
2017-02-12T02:39:26.947Z,24.05
2017-02-12T02:39:47.341Z,23.93
2017-02-12T02:40:07.973Z,24
2017-02-12T02:40:28.388Z,23.98
2017-02-12T02:40:49.322Z,24.02
2017-02-12T02:41:09.712Z,24.07
2017-02-12T02:41:30.046Z,24.04
2017-02-12T02:41:49.800Z,24
2017-02-12T02:42:10.196Z,24.02
2017-02-12T02:42:30.612Z,24.04
2017-02-12T02:42:50.347Z,23.97
2017-02-12T02:43:10.778Z,23.9
2017-02-12T02:43:31.227Z,23.93
2017-02-12T02:43:51.614Z,24.01
2017-02-12T02:44:12.027Z,24.01
2017-02-12T02:44:32.430Z,24
2017-02-12T02:44:52.839Z,23.97
2017-02-12T02:45:13.224Z,24.01
2017-02-12T02:45:33.000Z,24.05
2017-02-12T02:45:53.394Z,24.01
2017-02-12T02:46:13.747Z,24.04
2017-02-12T02:46:34.143Z,23.95
2017-02-12T02:46:54.569Z,24.01
2017-02-12T02:47:14.979Z,24.01
2017-02-12T02:47:35.361Z,24
2017-02-12T02:47:55.740Z,24
2017-02-12T02:48:16.157Z,24.01
2017-02-12T02:48:36.553Z,24
2017-02-12T02:48:56.939Z,24.05
2017-02-12T02:49:16.717Z,24.07
2017-02-12T02:49:37.105Z,24.04
2017-02-12T02:49:57.527Z,24
2017-02-12T02:50:17.911Z,24.05
2017-02-12T02:50:38.341Z,24.05
2017-02-12T02:50:58.768Z,23.95
2017-02-12T02:51:18.548Z,24.05
2017-02-12T02:51:38.962Z,24.04
2017-02-12T02:51:59.452Z,24.11
2017-02-12T02:52:19.337Z,24.05
2017-02-12T02:52:39.862Z,24.12
2017-02-12T02:53:00.348Z,24.05
2017-02-12T02:53:20.790Z,24.1
2017-02-12T02:53:40.599Z,24.05
2017-02-12T02:54:01.008Z,24.12
2017-02-12T02:54:20.823Z,23.98
2017-02-12T02:54:41.299Z,24.04
2017-02-12T02:55:01.758Z,24.15
2017-02-12T02:55:21.747Z,24.01
2017-02-12T02:55:42.229Z,24.12
2017-02-12T02:56:02.673Z,24.01
2017-02-12T02:56:23.784Z,24.01
2017-02-12T02:56:44.211Z,23.98
2017-02-12T02:57:04.626Z,24.11
2017-02-12T02:57:24.352Z,24.1
2017-02-12T02:57:44.109Z,24.11
2017-02-12T02:58:04.488Z,24.08
2017-02-12T02:58:24.868Z,24.07
2017-02-12T02:58:45.285Z,24.11
2017-02-12T02:59:05.709Z,24.08
2017-02-12T02:59:26.104Z,23.93
2017-02-12T02:59:46.597Z,24.07
2017-02-12T03:00:06.993Z,24.07
2017-02-12T03:00:27.411Z,24.04
2017-02-12T03:00:48.315Z,24.16
2017-02-12T03:01:08.696Z,24.1
2017-02-12T03:01:29.141Z,24.02
2017-02-12T03:01:49.570Z,24
2017-02-12T03:02:09.983Z,24
2017-02-12T03:02:29.722Z,24.05
2017-02-12T03:02:50.129Z,24.12
2017-02-12T03:03:10.543Z,24.04
2017-02-12T03:03:30.939Z,24.01
2017-02-12T03:03:51.368Z,24.04
2017-02-12T03:04:11.735Z,24.05
2017-02-12T03:04:31.499Z,24.1
2017-02-12T03:04:51.933Z,24.1
2017-02-12T03:05:12.321Z,24.1
2017-02-12T03:05:32.750Z,24.15
2017-02-12T03:05:53.177Z,23.97
2017-02-12T03:06:13.551Z,24.05
2017-02-12T03:06:33.941Z,24.08
2017-02-12T03:06:53.729Z,24.05
2017-02-12T03:07:14.121Z,23.97
2017-02-12T03:07:34.486Z,24.05
2017-02-12T03:07:54.877Z,23.95
2017-02-12T03:08:15.272Z,24.04
2017-02-12T03:08:35.658Z,24
2017-02-12T03:08:56.097Z,24.02
2017-02-12T03:09:15.924Z,24.02
2017-02-12T03:09:36.389Z,24.04
2017-02-12T03:09:56.806Z,24.05
2017-02-12T03:10:17.231Z,24.11
2017-02-12T03:10:37.638Z,24.02
2017-02-12T03:10:58.040Z,24.01
2017-02-12T03:11:18.516Z,24
2017-02-12T03:11:38.974Z,24.02
2017-02-12T03:11:59.919Z,24.01
2017-02-12T03:12:20.680Z,24.01
2017-02-12T03:12:41.142Z,23.98
2017-02-12T03:13:01.611Z,24.01
2017-02-12T03:13:21.399Z,23.97
2017-02-12T03:13:41.830Z,23.98
2017-02-12T03:14:02.234Z,23.95
2017-02-12T03:14:22.630Z,24
2017-02-12T03:14:43.057Z,23.98
2017-02-12T03:15:03.977Z,24.04
2017-02-12T03:15:23.737Z,24.02
2017-02-12T03:15:43.508Z,24.01
2017-02-12T03:16:03.892Z,24
2017-02-12T03:16:24.323Z,23.98
2017-02-12T03:16:44.766Z,23.98
2017-02-12T03:17:05.639Z,23.9
2017-02-12T03:17:26.075Z,23.93
2017-02-12T03:17:46.495Z,23.92
2017-02-12T03:18:06.943Z,23.93
2017-02-12T03:18:26.692Z,23.89
2017-02-12T03:18:47.083Z,23.87
2017-02-12T03:19:07.494Z,23.86
2017-02-12T03:19:27.870Z,23.83
2017-02-12T03:19:48.286Z,23.85
2017-02-12T03:20:08.859Z,23.9
2017-02-12T03:20:27.953Z,23.86
2017-02-12T03:20:48.365Z,23.9
2017-02-12T03:21:08.758Z,23.89
2017-02-12T03:21:29.178Z,23.95
2017-02-12T03:21:49.540Z,23.93
2017-02-12T03:22:09.537Z,23.93
2017-02-12T03:22:29.266Z,23.95
2017-02-12T03:22:49.698Z,23.93
2017-02-12T03:23:10.153Z,23.92
2017-02-12T03:23:30.542Z,23.9
2017-02-12T03:23:50.985Z,23.89
2017-02-12T03:24:11.412Z,23.95
2017-02-12T03:24:31.829Z,23.95
2017-02-12T03:24:52.246Z,23.85
2017-02-12T03:25:12.650Z,23.89
2017-02-12T03:25:32.393Z,23.82
2017-02-12T03:25:52.806Z,23.9
2017-02-12T03:26:12.548Z,23.83
2017-02-12T03:26:32.953Z,23.9
2017-02-12T03:26:53.360Z,23.92
2017-02-12T03:27:13.813Z,23.86
2017-02-12T03:27:34.187Z,23.83
2017-02-12T03:27:54.583Z,23.87
2017-02-12T03:28:14.285Z,23.89
2017-02-12T03:28:34.679Z,23.9
2017-02-12T03:28:55.076Z,23.86
2017-02-12T03:29:15.487Z,23.86
2017-02-12T03:29:35.891Z,23.85
2017-02-12T03:29:56.272Z,23.86
2017-02-12T03:30:16.868Z,23.87
2017-02-12T03:30:37.259Z,23.92
2017-02-12T03:30:57.608Z,23.89
2017-02-12T03:31:18.014Z,23.87
2017-02-12T03:31:38.430Z,23.87
2017-02-12T03:31:58.198Z,23.9
2017-02-12T03:32:18.578Z,23.85
2017-02-12T03:32:38.935Z,23.89
2017-02-12T03:32:59.337Z,23.86
2017-02-12T03:33:19.099Z,23.83
2017-02-12T03:33:39.521Z,23.93
2017-02-12T03:33:59.898Z,23.87
2017-02-12T03:34:19.641Z,23.82
2017-02-12T03:34:39.387Z,23.85
2017-02-12T03:34:59.775Z,23.9
2017-02-12T03:35:20.153Z,23.79
2017-02-12T03:35:40.550Z,23.8
2017-02-12T03:36:00.954Z,23.92
2017-02-12T03:36:21.395Z,23.9
2017-02-12T03:36:41.791Z,23.83
2017-02-12T03:37:02.164Z,23.86
2017-02-12T03:37:22.548Z,23.85
2017-02-12T03:37:42.927Z,23.8
2017-02-12T03:38:03.303Z,23.89
2017-02-12T03:38:23.691Z,23.87
2017-02-12T03:38:43.408Z,23.85
2017-02-12T03:39:03.859Z,23.87
2017-02-12T03:39:24.249Z,23.87
2017-02-12T03:39:44.637Z,23.86
2017-02-12T03:40:05.090Z,23.83
2017-02-12T03:40:25.513Z,23.83
2017-02-12T03:40:45.924Z,23.9
2017-02-12T03:41:06.354Z,23.8
2017-02-12T03:41:26.717Z,23.82
2017-02-12T03:41:46.459Z,23.79
2017-02-12T03:42:06.204Z,23.82
2017-02-12T03:42:26.642Z,23.87
2017-02-12T03:42:47.055Z,23.8
2017-02-12T03:43:07.435Z,23.85
2017-02-12T03:43:27.841Z,23.85
2017-02-12T03:43:48.265Z,23.8
2017-02-12T03:44:08.665Z,23.85
2017-02-12T03:44:29.044Z,23.79
2017-02-12T03:44:48.795Z,23.87
2017-02-12T03:45:09.188Z,23.87
2017-02-12T03:45:29.584Z,23.82
2017-02-12T03:45:49.946Z,23.82
2017-02-12T03:46:10.379Z,23.83
2017-02-12T03:46:30.118Z,23.83
2017-02-12T03:46:50.502Z,23.79
2017-02-12T03:47:10.534Z,23.86
2017-02-12T03:47:30.923Z,23.8
2017-02-12T03:47:51.315Z,23.83
2017-02-12T03:48:11.717Z,23.86
2017-02-12T03:48:32.090Z,23.74
2017-02-12T03:48:51.836Z,23.82
2017-02-12T03:49:12.225Z,23.78
2017-02-12T03:49:32.605Z,23.75
2017-02-12T03:49:53.075Z,23.74
2017-02-12T03:50:13.510Z,23.79
2017-02-12T03:50:33.911Z,23.83
2017-02-12T03:50:54.276Z,23.8
2017-02-12T03:51:13.997Z,23.86
2017-02-12T03:51:34.396Z,23.82
2017-02-12T03:51:54.140Z,23.8
2017-02-12T03:52:13.504Z,23.85
2017-02-12T03:52:33.950Z,23.79
2017-02-12T03:53:13.582Z,23.79
2017-02-12T03:53:33.982Z,23.8
2017-02-12T03:53:54.395Z,23.78
2017-02-12T03:54:14.757Z,23.8
2017-02-12T03:54:35.142Z,23.8
2017-02-12T03:54:55.523Z,23.78
2017-02-12T03:55:15.974Z,23.78
2017-02-12T03:55:36.378Z,23.65
2017-02-12T03:55:56.782Z,23.7
2017-02-12T03:56:17.226Z,23.7
2017-02-12T03:56:37.607Z,23.7
2017-02-12T03:56:58.013Z,23.75
2017-02-12T03:57:18.568Z,23.75
2017-02-12T03:57:38.944Z,23.7
2017-02-12T03:57:59.347Z,23.72
2017-02-12T03:58:19.114Z,23.74
2017-02-12T03:58:39.473Z,23.74
2017-02-12T03:58:59.876Z,23.74
2017-02-12T03:59:20.303Z,23.75
2017-02-12T03:59:40.733Z,23.72
2017-02-12T04:00:01.120Z,23.72
2017-02-12T04:00:20.900Z,23.71
2017-02-12T04:00:41.307Z,23.67
2017-02-12T04:01:01.030Z,23.7
2017-02-12T04:01:21.437Z,23.74
2017-02-12T04:01:41.812Z,23.68
2017-02-12T04:02:02.234Z,23.71
2017-02-12T04:02:21.481Z,23.68
2017-02-12T04:02:41.255Z,23.72
2017-02-12T04:03:01.690Z,23.72
2017-02-12T04:03:21.440Z,23.71
2017-02-12T04:03:41.788Z,23.72
2017-02-12T04:04:02.144Z,23.61
2017-02-12T04:04:21.247Z,23.7
2017-02-12T04:04:41.659Z,23.7
2017-02-12T04:05:01.445Z,23.67
2017-02-12T04:05:21.838Z,23.61
2017-02-12T04:05:42.251Z,23.61
2017-02-12T04:06:02.627Z,23.7
2017-02-12T04:06:23.019Z,23.6
2017-02-12T04:06:43.403Z,23.61
2017-02-12T04:07:03.810Z,23.67
2017-02-12T04:07:24.212Z,23.79
2017-02-12T04:07:44.623Z,23.65
2017-02-12T04:08:05.026Z,23.75
2017-02-12T04:08:25.384Z,23.68
2017-02-12T04:08:45.819Z,23.65
2017-02-12T04:09:06.251Z,23.74
2017-02-12T04:09:26.004Z,23.65
2017-02-12T04:09:46.403Z,23.63
2017-02-12T04:10:06.144Z,23.63
2017-02-12T04:10:25.852Z,23.65
2017-02-12T04:10:46.256Z,23.67
2017-02-12T04:11:06.674Z,23.64
2017-02-12T04:11:45.966Z,23.61
2017-02-12T04:12:06.361Z,23.64
2017-02-12T04:12:26.264Z,23.68
2017-02-12T04:12:46.622Z,23.67
2017-02-12T04:13:07.009Z,23.68
2017-02-12T04:13:27.414Z,23.68
2017-02-12T04:13:47.806Z,23.65
2017-02-12T04:14:08.187Z,23.67
2017-02-12T04:14:28.599Z,23.63
2017-02-12T04:14:48.991Z,23.61
2017-02-12T04:15:09.373Z,23.71
2017-02-12T04:15:29.851Z,23.64
2017-02-12T04:15:50.233Z,23.61
2017-02-12T04:16:10.651Z,23.63
2017-02-12T04:16:31.052Z,23.6
2017-02-12T04:16:51.444Z,23.61
2017-02-12T04:17:11.204Z,23.7
2017-02-12T04:17:31.612Z,23.6
2017-02-12T04:17:52.012Z,23.65
2017-02-12T04:18:11.749Z,23.6
2017-02-12T04:18:32.124Z,23.7
2017-02-12T04:18:52.503Z,23.64
2017-02-12T04:19:12.893Z,23.63
2017-02-12T04:19:32.612Z,23.6
2017-02-12T04:19:52.347Z,23.6
2017-02-12T04:20:12.726Z,23.61
2017-02-12T04:20:33.126Z,23.61
2017-02-12T04:20:53.540Z,23.64
2017-02-12T04:21:13.338Z,23.68
2017-02-12T04:21:33.785Z,23.63
2017-02-12T04:21:54.184Z,23.55
2017-02-12T04:22:13.929Z,23.6
2017-02-12T04:22:34.318Z,23.63
2017-02-12T04:22:54.090Z,23.56
2017-02-12T04:23:14.484Z,23.58
2017-02-12T04:23:34.866Z,23.64